Time;durP1;ratioP1;P1;durP2;ratioP2;P2;SDS_P1;SDS_P2;PMS_P1;PMS_P2;Temp;Humidity;BMP_temperature;BMP_pressure;BME280_temperature;BME280_humidity;BME280_pressure;Samples;Min_cycle;Max_cycle;Signal;HPM_P1;HPM_P2
2022/03/03 00:00:50;;;;;;;16.90;14.37;;;2.70;69.90;;;;;;5014337;28;20209;-84
2022/03/03 00:03:15;;;;;;;16.93;12.97;;;2.60;69.70;;;;;;5003895;28;20293;-85
2022/03/03 00:05:41;;;;;;;16.07;13.83;;;2.50;70.20;;;;;;5002491;28;20218;-85
2022/03/03 00:08:07;;;;;;;15.13;13.07;;;2.50;70.40;;;;;;5007418;28;20811;-85
2022/03/03 00:10:32;;;;;;;16.47;14.30;;;2.50;70.30;;;;;;5003425;28;20210;-85
2022/03/03 00:12:58;;;;;;;19.23;14.60;;;2.50;69.80;;;;;;5003912;28;20210;-85
2022/03/03 00:15:24;;;;;;;16.50;13.67;;;2.40;70.10;;;;;;5004437;28;20197;-85
2022/03/03 00:17:50;;;;;;;16.73;13.77;;;2.40;70.80;;;;;;5004327;28;20217;-85
2022/03/03 00:20:15;;;;;;;14.67;12.77;;;2.30;71.00;;;;;;4997857;28;20203;-85
2022/03/03 00:22:41;;;;;;;15.23;13.63;;;2.30;71.40;;;;;;4999806;28;20221;-85
2022/03/03 00:25:07;;;;;;;14.57;13.07;;;2.30;71.30;;;;;;5005734;28;20198;-84
2022/03/03 00:27:34;;;;;;;16.33;13.60;;;2.30;71.10;;;;;;5012954;28;20194;-86
2022/03/03 00:29:59;;;;;;;15.87;14.17;;;2.40;70.90;;;;;;5001535;28;20214;-85
2022/03/03 00:32:25;;;;;;;13.83;12.43;;;2.30;70.70;;;;;;5009100;28;20217;-85
2022/03/03 00:34:51;;;;;;;14.07;12.43;;;2.30;71.70;;;;;;5010031;28;20198;-85
2022/03/03 00:37:17;;;;;;;14.10;12.60;;;2.30;71.70;;;;;;5003386;28;20234;-85
2022/03/03 00:39:43;;;;;;;14.83;13.27;;;2.30;71.00;;;;;;5010932;28;20228;-86
2022/03/03 00:42:09;;;;;;;15.33;13.03;;;2.30;71.10;;;;;;5021052;28;20229;-85
2022/03/03 00:44:35;;;;;;;14.30;12.73;;;2.30;71.00;;;;;;5002529;28;20198;-85
2022/03/03 00:47:01;;;;;;;13.93;12.47;;;2.40;70.90;;;;;;5002268;28;20257;-85
2022/03/03 00:49:26;;;;;;;14.90;12.37;;;2.30;70.20;;;;;;5000867;28;20249;-85
2022/03/03 00:51:52;;;;;;;15.77;13.70;;;2.20;70.80;;;;;;5004597;28;20202;-85
2022/03/03 00:54:18;;;;;;;16.77;13.30;;;2.10;70.80;;;;;;5003920;28;20206;-85
2022/03/03 00:56:44;;;;;;;16.73;13.17;;;1.80;72.30;;;;;;5007837;28;20646;-85
2022/03/03 00:59:10;;;;;;;14.33;12.40;;;1.70;73.40;;;;;;5013651;28;20668;-85
2022/03/03 01:01:37;;;;;;;17.93;14.07;;;1.80;73.50;;;;;;5005615;28;20190;-85
2022/03/03 01:04:02;;;;;;;16.87;14.70;;;1.90;73.40;;;;;;5005781;28;20186;-86
2022/03/03 01:06:28;;;;;;;16.43;13.50;;;1.90;72.20;;;;;;5019841;28;20228;-85
2022/03/03 01:08:54;;;;;;;14.63;13.13;;;1.80;72.40;;;;;;5002798;28;20186;-85
2022/03/03 01:11:20;;;;;;;13.97;12.40;;;1.30;73.80;;;;;;4997140;28;20221;-85
2022/03/03 01:13:45;;;;;;;15.60;13.73;;;1.40;75.00;;;;;;5011435;28;20210;-85
2022/03/03 01:16:11;;;;;;;15.53;13.87;;;1.60;74.90;;;;;;5008150;28;20214;-85
2022/03/03 01:18:37;;;;;;;15.77;13.47;;;1.70;74.30;;;;;;5005921;28;20202;-84
2022/03/03 01:21:02;;;;;;;15.13;13.53;;;1.70;74.30;;;;;;5011852;28;20205;-85
2022/03/03 01:23:28;;;;;;;16.67;14.80;;;1.90;73.80;;;;;;5012742;28;20253;-85
2022/03/03 01:25:54;;;;;;;15.77;12.97;;;2.00;73.30;;;;;;5004934;28;20193;-84
2022/03/03 01:28:38;;;;;;;14.80;12.63;;;2.00;72.50;;;;;;5007762;28;20191;-85
2022/03/03 01:31:03;;;;;;;16.93;14.20;;;2.00;72.40;;;;;;4985088;28;20206;-85
2022/03/03 01:33:29;;;;;;;16.13;13.00;;;1.90;72.10;;;;;;5003300;28;20292;-85
2022/03/03 01:35:55;;;;;;;14.50;13.00;;;2.00;72.40;;;;;;5004747;28;20201;-85
2022/03/03 01:38:21;;;;;;;15.33;13.00;;;2.00;72.00;;;;;;5024381;28;20190;-86
2022/03/03 01:40:46;;;;;;;16.77;12.87;;;1.90;72.00;;;;;;5020603;28;20194;-84
2022/03/03 01:43:12;;;;;;;15.40;13.63;;;2.00;72.30;;;;;;4994675;28;20234;-85
2022/03/03 01:45:38;;;;;;;14.80;13.33;;;2.00;72.10;;;;;;5007186;28;20186;-85
2022/03/03 01:48:04;;;;;;;14.10;12.50;;;2.10;71.90;;;;;;5018032;28;20171;-86
2022/03/03 01:50:30;;;;;;;15.80;14.10;;;2.00;71.40;;;;;;5018791;28;20222;-85
2022/03/03 01:52:55;;;;;;;15.00;13.07;;;2.00;71.30;;;;;;5003081;28;20676;-85
2022/03/03 01:55:22;;;;;;;15.40;13.80;;;1.90;72.10;;;;;;4992250;28;20260;-85
2022/03/03 01:57:49;;;;;;;16.80;13.90;;;1.90;71.90;;;;;;5001313;28;20191;-85
2022/03/03 02:00:16;;;;;;;15.67;13.13;;;1.80;72.50;;;;;;5007921;28;20202;-85
2022/03/03 02:02:42;;;;;;;14.97;13.33;;;1.50;71.30;;;;;;5008145;28;20304;-85
2022/03/03 02:05:08;;;;;;;17.13;13.87;;;1.40;73.90;;;;;;5015358;28;20182;-85
2022/03/03 02:07:34;;;;;;;13.83;12.13;;;1.50;73.50;;;;;;5006053;28;20277;-85
2022/03/03 02:10:04;;;;;;;14.40;12.63;;;1.60;73.20;;;;;;5016450;28;20573;-86
2022/03/03 02:12:30;;;;;;;14.67;13.17;;;1.60;72.90;;;;;;5011023;28;20210;-86
2022/03/03 02:14:57;;;;;;;17.33;14.07;;;1.60;72.50;;;;;;5005904;28;20178;-86
2022/03/03 02:17:23;;;;;;;17.20;13.80;;;1.60;72.80;;;;;;5002648;28;20194;-85
2022/03/03 02:19:48;;;;;;;14.80;12.80;;;1.70;72.80;;;;;;5003167;28;20292;-86
2022/03/03 02:22:15;;;;;;;15.27;13.57;;;1.60;72.10;;;;;;5003169;28;20248;-86
2022/03/03 02:24:41;;;;;;;15.83;13.63;;;1.50;72.10;;;;;;5003677;28;20206;-85
2022/03/03 02:27:07;;;;;;;16.27;13.60;;;1.20;73.60;;;;;;5001003;28;20198;-86
2022/03/03 02:29:34;;;;;;;15.80;13.13;;;1.10;75.70;;;;;;5003614;28;20214;-86
2022/03/03 02:32:01;;;;;;;14.97;12.63;;;1.10;76.40;;;;;;5006091;28;20278;-86
2022/03/03 02:34:27;;;;;;;15.93;13.03;;;1.20;76.20;;;;;;5001804;28;20191;-86
2022/03/03 02:36:53;;;;;;;17.97;13.93;;;1.30;75.70;;;;;;5005300;28;20186;-86
2022/03/03 02:39:19;;;;;;;14.93;13.37;;;1.30;75.20;;;;;;5003560;28;20230;-86
2022/03/03 02:41:45;;;;;;;16.23;14.30;;;1.40;74.50;;;;;;5009035;28;20218;-86
2022/03/03 02:44:11;;;;;;;14.33;12.47;;;1.20;73.10;;;;;;5007685;28;20607;-85
2022/03/03 02:46:36;;;;;;;17.70;13.50;;;1.10;75.00;;;;;;5008475;28;20198;-85
2022/03/03 02:49:03;;;;;;;14.10;12.20;;;1.20;74.10;;;;;;5006367;28;20194;-85
2022/03/03 02:51:28;;;;;;;16.10;13.50;;;1.20;75.00;;;;;;5012786;28;20369;-85
2022/03/03 02:53:54;;;;;;;14.43;12.93;;;1.30;74.60;;;;;;5001936;28;20210;-85
2022/03/03 02:56:20;;;;;;;17.97;13.47;;;1.30;74.20;;;;;;5006808;28;20197;-85
2022/03/03 02:58:46;;;;;;;16.73;12.87;;;1.30;73.90;;;;;;5012729;28;20674;-85
2022/03/03 03:01:12;;;;;;;14.70;12.90;;;1.40;73.30;;;;;;5009938;28;20193;-85
2022/03/03 03:03:38;;;;;;;16.30;13.37;;;1.10;73.20;;;;;;5004355;28;20721;-85
2022/03/03 03:06:04;;;;;;;14.73;13.13;;;0.80;75.50;;;;;;5012159;28;20573;-85
2022/03/03 03:08:31;;;;;;;17.13;13.23;;;0.70;75.50;;;;;;5004240;28;20879;-85
2022/03/03 03:10:56;;;;;;;15.87;13.70;;;0.60;75.80;;;;;;5010478;28;20235;-85
2022/03/03 03:13:22;;;;;;;18.63;13.13;;;0.60;77.00;;;;;;5009604;28;21273;-85
2022/03/03 03:15:48;;;;;;;14.60;13.03;;;0.70;77.20;;;;;;5012716;28;20195;-85
2022/03/03 03:18:18;;;;;;;14.37;12.83;;;0.80;76.80;;;;;;5011761;28;20193;-86
2022/03/03 03:20:47;;;;;;;17.30;13.33;;;0.90;76.20;;;;;;5019698;28;20269;-85
2022/03/03 03:23:15;;;;;;;17.07;13.77;;;1.00;76.10;;;;;;5014734;28;20217;-86
2022/03/03 03:25:43;;;;;;;16.10;13.63;;;1.00;75.50;;;;;;5016297;28;20208;-86
2022/03/03 03:28:10;;;;;;;15.20;13.20;;;1.10;75.40;;;;;;5016921;28;20234;-86
2022/03/03 03:30:36;;;;;;;16.87;12.60;;;1.10;75.10;;;;;;5019912;28;20222;-86
2022/03/03 03:33:03;;;;;;;14.93;13.00;;;1.20;75.00;;;;;;5011995;28;20256;-86
2022/03/03 03:35:29;;;;;;;14.77;13.17;;;1.20;73.80;;;;;;5003017;28;20190;-86
2022/03/03 03:37:55;;;;;;;16.63;13.37;;;1.00;73.30;;;;;;4999653;28;20222;-86
2022/03/03 03:40:21;;;;;;;15.10;13.23;;;0.70;75.40;;;;;;5019172;28;20210;-86
2022/03/03 03:42:47;;;;;;;17.40;13.97;;;0.50;77.10;;;;;;5002805;28;20257;-86
2022/03/03 03:45:13;;;;;;;16.07;13.97;;;0.50;78.50;;;;;;5002916;28;20213;-86
2022/03/03 03:47:39;;;;;;;16.07;13.67;;;0.50;76.20;;;;;;4988265;28;20236;-86
2022/03/03 03:50:08;;;;;;;14.10;12.63;;;0.30;78.10;;;;;;5008665;28;20277;-86
2022/03/03 03:52:35;;;;;;;15.87;12.63;;;0.40;78.00;;;;;;5004838;28;20241;-86
2022/03/03 03:55:01;;;;;;;14.20;12.70;;;0.60;77.20;;;;;;5004270;28;20183;-86
2022/03/03 03:57:27;;;;;;;12.77;11.47;;;0.70;76.40;;;;;;5009799;28;20197;-86
2022/03/03 03:59:52;;;;;;;17.00;14.10;;;0.90;75.80;;;;;;5008496;28;20201;-86
2022/03/03 04:02:18;;;;;;;14.10;12.67;;;0.90;75.50;;;;;;5004408;28;20246;-86
2022/03/03 04:04:44;;;;;;;14.20;12.10;;;1.00;75.30;;;;;;5013708;28;20193;-86
2022/03/03 04:07:09;;;;;;;14.20;12.70;;;1.00;74.90;;;;;;5013091;28;20205;-86
2022/03/03 04:09:35;;;;;;;14.57;13.07;;;1.00;74.20;;;;;;4994088;28;20210;-85
2022/03/03 04:12:02;;;;;;;14.40;11.87;;;1.00;74.10;;;;;;5017779;28;20210;-86
2022/03/03 04:14:28;;;;;;;14.67;13.07;;;1.00;74.10;;;;;;5004005;28;20190;-86
2022/03/03 04:16:53;;;;;;;14.30;12.47;;;1.00;73.70;;;;;;5001170;28;20560;-86
2022/03/03 04:19:19;;;;;;;14.77;13.27;;;1.00;73.50;;;;;;5000934;28;20309;-86
2022/03/03 04:21:45;;;;;;;17.97;13.87;;;1.00;73.50;;;;;;5001764;28;20292;-86
2022/03/03 04:24:11;;;;;;;15.07;13.57;;;1.00;73.90;;;;;;5010631;28;20185;-86
2022/03/03 04:26:37;;;;;;;18.50;15.67;;;0.90;73.30;;;;;;5014983;28;20745;-85
2022/03/03 04:29:03;;;;;;;14.27;12.87;;;0.80;74.90;;;;;;5011140;28;20177;-86
2022/03/03 04:31:29;;;;;;;14.20;12.80;;;0.80;74.10;;;;;;5017130;28;20253;-86
2022/03/03 04:33:56;;;;;;;15.27;12.90;;;0.70;74.90;;;;;;5008261;28;20191;-85
2022/03/03 04:36:22;;;;;;;15.17;13.60;;;0.70;75.50;;;;;;5002214;28;20182;-85
2022/03/03 04:38:50;;;;;;;15.97;13.43;;;0.70;75.10;;;;;;5018231;28;20244;-86
2022/03/03 04:41:17;;;;;;;17.60;13.60;;;0.80;74.70;;;;;;5023218;28;20170;-87
2022/03/03 04:43:42;;;;;;;15.17;13.00;;;0.70;75.30;;;;;;5018959;28;20321;-86
2022/03/03 04:46:08;;;;;;;15.90;13.80;;;0.70;74.60;;;;;;5005984;28;20198;-85
2022/03/03 04:48:35;;;;;;;14.87;13.30;;;0.80;74.50;;;;;;5012313;28;20197;-86
2022/03/03 04:51:01;;;;;;;18.17;12.70;;;0.80;74.50;;;;;;5015745;28;20225;-86
2022/03/03 04:53:27;;;;;;;17.67;13.17;;;0.70;74.10;;;;;;5014538;28;20381;-86
2022/03/03 04:55:54;;;;;;;16.77;12.83;;;0.80;74.00;;;;;;5014309;28;20232;-86
2022/03/03 04:58:20;;;;;;;13.30;11.90;;;0.80;74.10;;;;;;4991949;28;20214;-86
2022/03/03 05:00:46;;;;;;;14.97;13.37;;;0.70;74.90;;;;;;5005932;28;20198;-86
2022/03/03 05:03:12;;;;;;;15.17;13.23;;;0.70;74.50;;;;;;5005993;28;20210;-86
2022/03/03 05:05:38;;;;;;;15.13;13.37;;;0.70;75.30;;;;;;5012636;28;20214;-86
2022/03/03 05:08:03;;;;;;;18.17;14.13;;;0.70;75.20;;;;;;5006484;28;20198;-86
2022/03/03 05:10:29;;;;;;;15.53;13.77;;;0.60;74.80;;;;;;4997922;28;20240;-86
2022/03/03 05:12:55;;;;;;;15.97;12.63;;;0.50;76.20;;;;;;5009742;28;20634;-86
2022/03/03 05:15:21;;;;;;;15.20;13.50;;;0.50;76.50;;;;;;5004638;28;20190;-86
2022/03/03 05:17:47;;;;;;;16.40;13.33;;;0.60;76.30;;;;;;5012482;28;20363;-86
2022/03/03 05:20:13;;;;;;;16.17;13.07;;;0.60;76.10;;;;;;5006813;28;20206;-86
2022/03/03 05:22:39;;;;;;;16.73;13.10;;;0.60;76.20;;;;;;5007298;28;20304;-86
2022/03/03 05:25:05;;;;;;;14.47;12.27;;;0.70;76.30;;;;;;5009829;28;20680;-86
2022/03/03 05:27:33;;;;;;;15.17;12.60;;;0.60;75.90;;;;;;5011021;28;20186;-86
2022/03/03 05:29:59;;;;;;;16.63;13.37;;;0.60;75.60;;;;;;5012123;28;20237;-86
2022/03/03 05:32:25;;;;;;;16.73;13.80;;;0.50;75.40;;;;;;5010511;28;20212;-86
2022/03/03 05:34:51;;;;;;;17.17;12.60;;;0.50;75.50;;;;;;5001323;28;20269;-86
2022/03/03 05:37:22;;;;;;;15.90;13.47;;;0.40;76.30;;;;;;4995567;28;20679;-86
2022/03/03 05:39:48;;;;;;;15.27;12.73;;;0.40;76.40;;;;;;5001346;28;20210;-87
2022/03/03 05:42:14;;;;;;;15.30;13.70;;;0.40;77.20;;;;;;5006683;28;20206;-86
2022/03/03 05:44:41;;;;;;;17.27;15.47;;;0.50;76.60;;;;;;5001371;28;20239;-86
2022/03/03 05:47:07;;;;;;;16.10;13.63;;;0.50;76.10;;;;;;4986908;28;20601;-86
2022/03/03 05:49:36;;;;;;;17.23;15.43;;;0.40;76.90;;;;;;5000935;28;20206;-87
2022/03/03 05:52:02;;;;;;;16.07;14.37;;;0.50;78.20;;;;;;4999047;28;20302;-87
2022/03/03 05:54:27;;;;;;;17.60;14.27;;;0.50;77.20;;;;;;4997157;28;20306;-87
2022/03/03 05:56:54;;;;;;;16.17;14.57;;;0.50;76.70;;;;;;4999975;28;20286;-85
2022/03/03 05:59:24;;;;;;;17.53;14.50;;;0.50;77.40;;;;;;5001043;28;20173;-86
2022/03/03 06:01:50;;;;;;;16.47;13.57;;;0.50;78.00;;;;;;4994429;28;20814;-87
2022/03/03 06:04:16;;;;;;;18.33;13.87;;;0.40;76.40;;;;;;4992794;28;20261;-87
2022/03/03 06:07:01;;;;;;;16.30;13.37;;;0.40;76.30;;;;;;5003988;28;20177;-87
2022/03/03 06:09:32;;;;;;;17.47;13.87;;;0.40;75.40;;;;;;4996263;28;20214;-87
2022/03/03 06:12:11;;;;;;;17.63;13.47;;;0.50;76.10;;;;;;4996715;28;20290;-87
2022/03/03 06:14:40;;;;;;;16.50;13.73;;;0.40;75.90;;;;;;4997280;28;20442;-86
2022/03/03 06:17:06;;;;;;;16.50;14.73;;;0.40;76.00;;;;;;4997633;28;20197;-86
2022/03/03 06:19:39;;;;;;;16.43;14.47;;;0.20;77.10;;;;;;4994187;28;20202;-87
2022/03/03 06:22:06;;;;;;;17.47;14.90;;;0.20;78.50;;;;;;4991769;28;20722;-85
2022/03/03 06:24:32;;;;;;;15.17;13.50;;;0.10;80.80;;;;;;4998416;28;20195;-86
2022/03/03 06:26:58;;;;;;;17.17;13.77;;;0.10;80.00;;;;;;4994862;28;20587;-86
2022/03/03 06:29:23;;;;;;;17.30;13.93;;;0.20;81.20;;;;;;4993887;28;20194;-86
2022/03/03 06:31:49;;;;;;;16.37;14.07;;;0.20;81.10;;;;;;4996506;28;20222;-86
2022/03/03 06:34:15;;;;;;;17.43;14.53;;;0.20;80.10;;;;;;5002903;28;20560;-86
2022/03/03 06:36:40;;;;;;;16.13;13.87;;;0.30;80.00;;;;;;5005173;28;20673;-86
2022/03/03 06:39:06;;;;;;;17.33;13.57;;;0.50;79.80;;;;;;5000528;28;20205;-86
2022/03/03 06:41:32;;;;;;;22.80;14.80;;;0.50;78.70;;;;;;4999701;28;20194;-85
2022/03/03 06:43:57;;;;;;;19.33;13.83;;;0.40;77.30;;;;;;4994018;28;20206;-85
2022/03/03 06:46:23;;;;;;;22.23;14.80;;;0.30;78.20;;;;;;4996098;28;20669;-85
2022/03/03 06:48:49;;;;;;;23.60;15.33;;;0.30;78.00;;;;;;5002916;28;20285;-86
2022/03/03 06:51:15;;;;;;;19.13;14.70;;;0.30;78.30;;;;;;4997602;28;20218;-85
2022/03/03 06:53:44;;;;;;;17.47;15.30;;;0.40;78.70;;;;;;4996532;28;20302;-85
2022/03/03 06:56:12;;;;;;;18.40;16.23;;;0.40;78.70;;;;;;4997194;28;20259;-85
2022/03/03 06:58:39;;;;;;;22.77;16.57;;;0.00;81.40;;;;;;4994708;28;20596;-85
2022/03/03 07:01:09;;;;;;;26.00;18.47;;;-0.30;85.70;;;;;;4996687;28;20660;-85
2022/03/03 07:03:36;;;;;;;18.97;16.97;;;-0.60;90.90;;;;;;4999585;28;20325;-86
2022/03/03 07:06:03;;;;;;;18.37;16.10;;;-0.60;93.60;;;;;;4999700;28;20191;-85
2022/03/03 07:08:30;;;;;;;21.80;16.33;;;-0.40;92.80;;;;;;4990207;28;20206;-86
2022/03/03 07:10:55;;;;;;;19.47;16.17;;;-0.20;92.10;;;;;;4987442;28;20214;-85
2022/03/03 07:13:21;;;;;;;18.40;16.43;;;0.00;90.70;;;;;;4984538;28;20361;-86
2022/03/03 07:15:52;;;;;;;18.43;14.67;;;0.10;89.80;;;;;;4990209;28;20746;-86
2022/03/03 07:18:21;;;;;;;19.17;15.77;;;0.30;88.60;;;;;;4990720;28;20214;-85
2022/03/03 07:21:03;;;;;;;18.97;15.10;;;0.40;87.90;;;;;;4999946;28;20190;-83
2022/03/03 07:23:36;;;;;;;17.60;15.73;;;0.40;87.60;;;;;;5014849;28;20397;-84
2022/03/03 07:26:08;;;;;;;20.80;15.67;;;0.60;86.60;;;;;;4990621;28;20696;-85
2022/03/03 07:28:34;;;;;;;22.57;15.60;;;0.80;85.40;;;;;;4990678;28;20614;-86
2022/03/03 07:31:03;;;;;;;20.57;16.53;;;0.80;85.10;;;;;;5012554;28;20210;-84
2022/03/03 07:33:49;;;;;;;23.33;17.40;;;0.90;84.80;;;;;;5020864;28;20209;-84
2022/03/03 07:36:23;;;;;;;19.73;17.33;;;1.10;83.80;;;;;;4989274;28;20201;-85
2022/03/03 07:39:11;;;;;;;20.53;16.93;;;1.10;83.60;;;;;;4991776;28;20228;-86
2022/03/03 07:41:36;;;;;;;19.43;16.13;;;1.10;83.20;;;;;;4989369;28;20198;-86
2022/03/03 07:44:02;;;;;;;21.53;15.07;;;1.10;83.60;;;;;;4989770;28;20201;-86
2022/03/03 07:46:28;;;;;;;18.97;15.90;;;1.20;83.60;;;;;;4991482;28;20206;-86
2022/03/03 07:48:55;;;;;;;20.23;17.33;;;1.30;83.60;;;;;;4992237;28;20186;-86
2022/03/03 07:51:24;;;;;;;18.03;16.10;;;1.40;82.20;;;;;;4987521;28;20210;-84
2022/03/03 07:53:50;;;;;;;20.80;16.63;;;1.40;82.30;;;;;;5007877;28;20189;-86
2022/03/03 07:56:33;;;;;;;22.40;16.27;;;1.50;82.60;;;;;;5009192;28;20213;-85
2022/03/03 07:59:03;;;;;;;18.93;16.93;;;1.40;83.00;;;;;;5013606;28;20190;-84
2022/03/03 08:01:31;;;;;;;20.60;17.50;;;1.50;82.70;;;;;;5015269;28;20502;-85
2022/03/03 08:04:01;;;;;;;22.67;16.40;;;1.50;82.40;;;;;;4995436;28;20284;-86
2022/03/03 08:06:28;;;;;;;19.83;17.33;;;1.60;82.20;;;;;;4987008;28;20209;-85
2022/03/03 08:08:55;;;;;;;23.87;20.87;;;1.50;82.80;;;;;;5004564;28;20263;-85
2022/03/03 08:11:24;;;;;;;25.53;20.80;;;1.50;84.10;;;;;;4992692;28;20218;-85
2022/03/03 08:13:53;;;;;;;22.00;18.10;;;1.40;84.50;;;;;;4994154;28;20244;-86
2022/03/03 08:16:19;;;;;;;20.87;18.57;;;1.50;84.80;;;;;;4992532;28;20202;-85
2022/03/03 08:18:47;;;;;;;20.17;16.63;;;1.50;83.90;;;;;;4999929;28;20204;-85
2022/03/03 08:21:14;;;;;;;19.90;16.37;;;1.60;83.20;;;;;;4998124;28;20205;-83
2022/03/03 08:23:43;;;;;;;22.03;16.17;;;1.70;82.90;;;;;;4994432;28;20230;-81
2022/03/03 08:26:12;;;;;;;18.27;16.43;;;1.60;83.00;;;;;;4998244;28;20697;-83
2022/03/03 08:28:39;;;;;;;18.97;16.43;;;1.60;82.50;;;;;;4994495;28;20204;-84
2022/03/03 08:31:06;;;;;;;22.13;16.63;;;1.70;81.90;;;;;;4996829;28;20252;-85
2022/03/03 08:33:52;;;;;;;20.93;16.43;;;1.70;82.20;;;;;;4998218;28;20279;-86
2022/03/03 08:36:25;;;;;;;21.73;17.97;;;1.80;82.90;;;;;;4996207;28;20213;-86
2022/03/03 08:38:52;;;;;;;18.23;16.33;;;1.80;82.80;;;;;;4994639;28;20289;-85
2022/03/03 08:41:22;;;;;;;24.37;20.67;;;1.90;83.00;;;;;;4997687;28;20542;-84
2022/03/03 08:43:52;;;;;;;32.93;25.43;;;2.00;83.00;;;;;;4996852;28;20237;-86
2022/03/03 08:46:26;;;;;;;46.97;32.00;;;1.90;83.60;;;;;;4999495;28;20284;-86
2022/03/03 08:48:55;;;;;;;28.57;21.13;;;1.90;83.70;;;;;;4993790;28;20534;-86
2022/03/03 08:51:21;;;;;;;20.73;17.57;;;1.90;84.70;;;;;;4994970;28;20216;-85
2022/03/03 08:53:47;;;;;;;36.23;29.77;;;1.90;84.90;;;;;;4992821;28;20627;-83
2022/03/03 08:56:13;;;;;;;32.07;24.47;;;1.90;85.20;;;;;;4993150;28;20194;-86
2022/03/03 08:58:40;;;;;;;42.33;30.73;;;2.00;84.90;;;;;;4998782;28;20278;-84
2022/03/03 09:01:05;;;;;;;33.43;24.90;;;2.00;84.30;;;;;;4996524;28;20201;-85
2022/03/03 09:03:32;;;;;;;42.33;32.07;;;2.00;85.10;;;;;;4995233;28;20268;-86
2022/03/03 09:05:58;;;;;;;25.33;19.27;;;2.10;84.10;;;;;;4999925;28;20199;-85
2022/03/03 09:08:24;;;;;;;24.73;20.47;;;2.20;83.60;;;;;;5003415;28;20198;-85
2022/03/03 09:10:50;;;;;;;29.23;21.50;;;2.20;83.80;;;;;;5001526;28;20265;-86
2022/03/03 09:13:16;;;;;;;35.73;27.73;;;2.30;83.60;;;;;;4993017;28;20689;-86
2022/03/03 09:15:43;;;;;;;26.03;22.00;;;2.40;81.70;;;;;;5002717;28;20197;-86
2022/03/03 09:18:08;;;;;;;30.33;24.93;;;2.50;81.60;;;;;;4989308;28;20194;-85
2022/03/03 09:20:34;;;;;;;37.33;26.23;;;2.60;81.30;;;;;;4995200;28;20669;-86
2022/03/03 09:23:00;;;;;;;36.50;26.90;;;2.60;80.30;;;;;;4991045;28;20218;-86
2022/03/03 09:25:26;;;;;;;26.60;21.60;;;2.80;80.00;;;;;;4995060;28;20208;-86
2022/03/03 09:27:52;;;;;;;27.17;22.13;;;2.90;79.80;;;;;;4993599;28;20209;-86
2022/03/03 09:30:18;;;;;;;24.93;21.93;;;3.00;79.00;;;;;;4994879;28;20779;-86
2022/03/03 09:32:44;;;;;;;24.43;21.47;;;3.20;79.00;;;;;;4992158;28;20206;-87
2022/03/03 09:35:11;;;;;;;24.80;21.40;;;3.40;78.00;;;;;;4990314;28;20199;-87
2022/03/03 09:37:37;;;;;;;24.93;21.70;;;3.50;77.40;;;;;;4994310;28;20596;-86
2022/03/03 09:40:04;;;;;;;28.17;19.73;;;3.70;77.30;;;;;;4987922;28;20789;-86
2022/03/03 09:42:33;;;;;;;29.37;22.57;;;3.80;76.90;;;;;;4988129;28;20286;-86
2022/03/03 09:44:59;;;;;;;25.37;22.53;;;3.80;76.10;;;;;;4995479;28;20213;-86
2022/03/03 09:47:25;;;;;;;24.27;21.67;;;4.00;75.20;;;;;;4998319;28;20301;-86
2022/03/03 09:49:50;;;;;;;25.83;21.67;;;4.10;75.20;;;;;;4973360;28;20266;-87
2022/03/03 09:52:18;;;;;;;26.07;22.60;;;4.20;74.50;;;;;;4986933;28;20238;-86
2022/03/03 09:54:48;;;;;;;29.00;21.87;;;4.40;73.80;;;;;;4988589;28;20198;-86
2022/03/03 09:57:15;;;;;;;26.13;21.60;;;4.60;72.70;;;;;;4996752;28;20187;-87
2022/03/03 09:59:42;;;;;;;26.80;22.53;;;4.70;71.50;;;;;;4993743;28;20205;-87
2022/03/03 10:02:08;;;;;;;26.93;22.10;;;4.80;71.30;;;;;;5000244;28;20236;-87
2022/03/03 10:04:34;;;;;;;27.23;22.67;;;4.90;70.40;;;;;;5012037;28;20195;-86
2022/03/03 10:07:08;;;;;;;25.97;22.10;;;5.10;69.40;;;;;;5010593;28;20257;-88
2022/03/03 10:09:59;;;;;;;24.97;21.63;;;5.30;67.80;;;;;;5005291;28;20661;-86
2022/03/03 10:12:27;;;;;;;23.60;21.07;;;5.30;67.50;;;;;;4990953;28;20301;-86
2022/03/03 10:14:59;;;;;;;27.27;21.33;;;5.50;66.50;;;;;;5001697;28;20182;-88
2022/03/03 10:17:36;;;;;;;27.80;22.37;;;5.70;65.80;;;;;;5014337;28;20262;-89
2022/03/03 10:20:04;;;;;;;27.17;21.83;;;5.80;64.80;;;;;;5007938;28;20189;-87
2022/03/03 10:22:50;;;;;;;23.87;21.57;;;6.00;62.90;;;;;;4981454;28;20222;-87
2022/03/03 10:25:29;;;;;;;26.77;22.80;;;6.10;62.80;;;;;;4999381;28;20775;-87
2022/03/03 10:27:55;;;;;;;27.60;22.13;;;6.30;62.30;;;;;;4992716;28;20193;-87
2022/03/03 10:30:21;;;;;;;26.03;21.57;;;6.50;61.70;;;;;;4991323;28;20233;-88
2022/03/03 10:32:47;;;;;;;23.70;21.33;;;6.70;60.20;;;;;;4987643;28;20236;-88
2022/03/03 10:35:18;;;;;;;27.80;22.63;;;6.90;60.30;;;;;;4999885;28;20657;-87
2022/03/03 10:37:45;;;;;;;29.07;21.47;;;7.20;57.80;;;;;;4995617;28;20198;-88
2022/03/03 10:40:13;;;;;;;25.93;22.23;;;7.40;57.20;;;;;;5000667;28;20194;-87
2022/03/03 10:42:43;;;;;;;24.83;22.03;;;7.30;57.20;;;;;;4995221;28;20580;-87
2022/03/03 10:45:15;;;;;;;25.20;20.37;;;7.50;56.40;;;;;;4995046;28;20230;-87
2022/03/03 10:47:45;;;;;;;25.30;21.53;;;7.70;55.40;;;;;;4991026;28;20202;-87
2022/03/03 10:50:11;;;;;;;23.93;21.33;;;7.70;55.10;;;;;;4991124;28;20210;-87
2022/03/03 10:52:40;;;;;;;24.07;21.57;;;7.90;55.40;;;;;;4995531;28;20224;-87
2022/03/03 10:55:14;;;;;;;28.80;23.20;;;8.00;55.30;;;;;;4999426;28;20318;-87
2022/03/03 10:57:42;;;;;;;24.30;21.80;;;8.20;53.20;;;;;;4997764;28;20253;-87
2022/03/03 11:00:19;;;;;;;24.87;21.20;;;8.20;54.90;;;;;;4998146;28;20668;-87
2022/03/03 11:02:50;;;;;;;23.23;20.77;;;8.70;52.20;;;;;;4991277;28;20221;-88
2022/03/03 11:05:17;;;;;;;24.70;22.10;;;8.80;51.40;;;;;;4994916;28;20205;-88
2022/03/03 11:07:45;;;;;;;23.00;20.67;;;8.90;51.00;;;;;;4989905;28;20253;-89
2022/03/03 11:10:13;;;;;;;24.10;21.57;;;8.90;50.90;;;;;;4996817;28;20255;-88
2022/03/03 11:12:43;;;;;;;21.93;19.80;;;9.00;50.30;;;;;;4996624;28;20220;-86
2022/03/03 11:15:11;;;;;;;23.63;21.23;;;9.00;50.00;;;;;;4985872;28;20202;-86
2022/03/03 11:17:37;;;;;;;23.40;20.90;;;9.10;49.60;;;;;;4993144;28;20182;-86
2022/03/03 11:20:05;;;;;;;24.43;21.83;;;9.00;50.00;;;;;;4992894;28;20201;-86
2022/03/03 11:22:31;;;;;;;29.37;21.23;;;9.20;50.20;;;;;;4992972;28;20221;-86
2022/03/03 11:25:00;;;;;;;24.47;21.97;;;9.60;49.20;;;;;;5001351;28;20190;-87
2022/03/03 11:27:37;;;;;;;23.60;21.27;;;9.60;50.50;;;;;;4991493;28;20563;-86
2022/03/03 11:30:18;;;;;;;22.90;20.60;;;10.00;47.30;;;;;;4989124;28;20222;-86
2022/03/03 11:32:46;;;;;;;23.07;20.83;;;9.60;47.80;;;;;;5002708;28;20224;-87
2022/03/03 11:35:14;;;;;;;23.57;20.40;;;9.40;48.70;;;;;;4998257;28;20704;-87
2022/03/03 11:37:43;;;;;;;24.03;21.43;;;9.50;49.10;;;;;;5001561;28;20190;-89
2022/03/03 11:40:12;;;;;;;25.00;20.60;;;9.60;47.60;;;;;;5014374;28;20249;-87
2022/03/03 11:42:46;;;;;;;23.27;20.43;;;9.80;48.40;;;;;;4995221;28;20428;-88
2022/03/03 11:45:15;;;;;;;24.27;21.53;;;9.70;46.80;;;;;;5003767;28;20181;-88
2022/03/03 11:47:45;;;;;;;25.30;22.70;;;10.00;47.00;;;;;;4990362;28;20186;-88
2022/03/03 11:50:19;;;;;;;23.87;21.37;;;10.20;46.60;;;;;;4981888;28;20282;-88
2022/03/03 11:52:57;;;;;;;22.97;20.67;;;10.40;45.30;;;;;;5002925;28;20228;-88
2022/03/03 11:55:42;;;;;;;23.03;20.83;;;10.40;46.00;;;;;;5001162;28;20181;-87
2022/03/03 11:58:24;;;;;;;23.70;21.30;;;11.20;43.70;;;;;;4997977;28;20636;-88
2022/03/03 12:01:01;;;;;;;24.40;21.80;;;11.20;43.60;;;;;;4999468;28;20196;-89
2022/03/03 12:03:28;;;;;;;23.13;20.80;;;11.30;43.20;;;;;;5004348;28;20229;-87
2022/03/03 12:06:05;;;;;;;23.97;21.63;;;11.50;42.90;;;;;;5013740;28;20192;-89
2022/03/03 12:08:33;;;;;;;25.43;23.03;;;11.90;41.80;;;;;;5004661;28;20193;-89
2022/03/03 12:11:05;;;;;;;25.13;22.33;;;11.70;41.90;;;;;;5005434;28;20288;-87
2022/03/03 12:13:32;;;;;;;25.73;21.67;;;11.50;42.50;;;;;;4999982;28;20239;-88
2022/03/03 12:16:32;;;;;;;22.87;20.50;;;11.60;42.50;;;;;;4999153;28;20460;-88
2022/03/03 12:19:02;;;;;;;24.27;21.87;;;12.10;40.50;;;;;;4998451;28;20796;-88
2022/03/03 12:21:46;;;;;;;22.30;19.97;;;11.80;41.50;;;;;;4997735;28;20202;-88
2022/03/03 12:24:17;;;;;;;23.60;21.17;;;12.50;40.60;;;;;;4990572;28;20695;-87
2022/03/03 12:26:55;;;;;;;24.30;21.90;;;12.60;40.00;;;;;;4997581;28;20238;-88
2022/03/03 12:29:38;;;;;;;23.33;21.03;;;12.90;39.20;;;;;;4994043;28;20205;-88
2022/03/03 12:32:37;;;;;;;24.00;21.57;;;13.40;39.80;;;;;;4985638;28;20206;-88
2022/03/03 12:35:05;;;;;;;22.43;20.20;;;13.80;39.20;;;;;;4993449;28;20192;-88
2022/03/03 12:37:33;;;;;;;24.63;22.23;;;14.00;37.40;;;;;;4999037;28;20178;-88
2022/03/03 12:40:02;;;;;;;25.83;23.20;;;13.80;37.20;;;;;;4995292;28;20654;-88